• Join FlightAware (Why Join?)
  • Login
  • US Flag 
04:58PM EDT


 

Airport Tracker/Info


-or-


 

Live Flight TrackerFlight Track Log ✈ AWE1940 ✈ 25-May-2013 ✈ KCLT - KALB

Flight Track Log - Related Links

Times and Time Zones

All times are in EDT time to prevent confusion due to time zone crossing. See the AWE1940 flight status page for this flight to view local times or setup timezone preferences in your user account.

Time Position Orientation Groundspeed Altitude Reporting Facility
EDT Latitude Longitude Course Direction KTS MPH feet Rate Location/Type
10:31PM 35.2306 -80.9392 72° East 174 200 1,400  Level Atlanta Center
10:32PM 35.2783 -80.9272 12° North 206 237 3,200 2,040 Climbing Atlanta Center
10:33PM 35.1511 -80.5993 29° Northeast  Level FlightAware Approximate
10:33PM 35.2908 -80.8481 79° East 273 314 5,400  Level Atlanta Center
10:34PM 35.2599 -80.5239 30° Northeast  Level FlightAware Approximate
10:34PM 35.3003 -80.7356 84° East 285 328 9,000  Level Atlanta Center
10:35PM 35.3423 -80.4329 72° East  Level FlightAware Approximate
10:35PM 35.3119 -80.6283 82° East 299 344 10,800  Level Atlanta Center
10:36PM 35.3807 -80.2871 72° East  Level FlightAware Approximate
10:36PM 35.3214 -80.5208 84° East 329 379 12,500  Level Atlanta Center
10:37PM 35.3553 -80.3922 72° East 366 421 14,800 2,520 Climbing Atlanta Center
10:38PM 35.3933 -80.2656 70° East 393 452 17,600 2,340 Climbing Atlanta Center
10:40PM 35.4822 -79.9436 71° East 429 494 22,300 1,980 Climbing Washington Center
10:41PM 35.5208 -79.7950 72° East 439 505 24,100 1,740 Climbing Washington Center
10:42PM 35.5597 -79.6414 73° East 459 528 25,900 2,040 Climbing Washington Center
10:43PM 35.5978 -79.4978 72° East 482 555 28,200 2,280 Climbing Washington Center
10:44PM 35.6508 -79.3419 67° East 464 534 30,500 1,380 Climbing Washington Center
10:45PM 35.7233 -79.2225 53° Northeast 434 499 31,000 240 Climbing Washington Center
10:46PM 35.8217 -79.1475 32° Northeast 409 471 31,000  Level Washington Center
10:47PM 35.8858 -79.0222 58° Northeast 419 482 31,000  Level Washington Center
10:48PM 35.8819 -78.8556 92° East 425 489 31,000  Level Washington Center
10:49PM 35.9156 -78.7003 75° East 448 516 31,000  Level Washington Center
10:50PM 35.9858 -78.5619 58° Northeast 448 516 31,000  Level Washington Center
10:51PM 36.0494 -78.4256 60° Northeast 448 516 31,000  Level Washington Center
10:52PM 36.1153 -78.2892 59° Northeast 458 527 31,000  Level Washington Center
10:53PM 36.1831 -78.1500 59° Northeast 458 527 31,000  Level Washington Center
10:54PM 36.2397 -78.0256 61° Northeast 458 527 31,000  Level Washington Center
10:55PM 36.3072 -77.8911 58° Northeast 458 527 31,000  Level Washington Center
10:56PM 36.3703 -77.7536 60° Northeast 458 527 31,000  Level Washington Center
10:57PM 36.4353 -77.6161 60° Northeast 458 527 31,000  Level Washington Center
10:58PM 36.4981 -77.4756 61° Northeast 453 521 31,000  Level Washington Center
10:59PM 36.5606 -77.3425 60° Northeast 453 521 31,000  Level Washington Center
11:00PM 36.6272 -77.2017 59° Northeast 453 521 31,000  Level Washington Center
11:01PM 36.6917 -77.0581 61° Northeast 453 521 31,000  Level Washington Center
11:02PM 36.7783 -76.9533 44° Northeast 453 521 31,000  Level Washington Center
11:03PM 36.8775 -76.8667 35° Northeast 432 497 31,000  Level Washington Center
11:04PM 36.9722 -76.7772 37° Northeast 427 491 31,000  Level Washington Center
11:05PM 37.0711 -76.6931 34° Northeast 427 491 31,000  Level Washington Center
11:06PM 37.1636 -76.6031 38° Northeast 422 486 31,000  Level Washington Center
11:07PM 37.2686 -76.5078 36° Northeast 427 491 31,000  Level Washington Center
11:08PM 37.3631 -76.4203 36° Northeast 427 491 31,000  Level Washington Center
11:09PM 37.4575 -76.3347 36° Northeast 422 486 31,000  Level Washington Center
11:10PM 37.5497 -76.2519 35° Northeast 417 480 31,000  Level Washington Center
11:11PM 37.6442 -76.1661 36° Northeast 412 474 31,000 -60 Level Washington Center
11:12PM 37.7364 -76.0856 35° Northeast 412 474 30,900  Descending Washington Center
11:13PM 37.8242 -75.9967 39° Northeast 406 467 31,000  Climbing Washington Center
11:14PM 37.9183 -75.9103 36° Northeast 411 473 31,000  Level Washington Center
11:15PM 38.0122 -75.8236 36° Northeast 411 473 31,000  Level Washington Center
11:16PM 38.1042 -75.7342 37° Northeast 411 473 31,000  Level Washington Center
11:17PM 38.1939 -75.6500 36° Northeast 411 473 31,000  Level Washington Center
11:18PM 38.2900 -75.5600 36° Northeast 411 473 31,000 -60 Level Washington Center
11:19PM 38.3775 -75.4936 31° Northeast 416 479 30,900 -60 Descending Washington Center
11:20PM 38.4836 -75.4539 16° North 390 449 30,900  Level Washington Center
11:21PM 38.5858 -75.4031 21° North 390 449 30,900  Level Washington Center
11:22PM 38.6878 -75.3389 26° Northeast 390 449 30,900 -360 Level Washington Center
11:23PM 38.7856 -75.2747 27° Northeast 395 455 30,200 -900 Descending Washington Center
11:24PM 38.8833 -75.2050 29° Northeast 401 461 29,200 -660 Descending Washington Center
11:25PM 38.9811 -75.1378 28° Northeast 396 456 28,900 -180 Descending Washington Center
11:26PM 39.0808 -75.0703 28° Northeast 391 450 28,900  Level Washington Center
11:27PM 39.1931 -74.9944 28° Northeast 391 450 28,900  Level Washington Center
11:28PM 39.2928 -74.9264 28° Northeast 391 450 28,900  Level Washington Center
11:30PM 39.4844 -74.7894 29° Northeast 392 451 28,900  Level New York Center
11:31PM 39.5867 -74.7200 28° Northeast 398 458 28,900  Level New York Center
11:32PM 39.6828 -74.6553 27° Northeast 398 458 28,900 -480 Level New York Center
11:33PM 39.7922 -74.6208 14° North 390 449 28,000 -900 Descending New York Center
11:34PM 39.9036 -74.5917 11° North 390 449 27,100 -600 Descending New York Center
11:35PM 40.0150 -74.5625 11° North 400 460 26,900 -120 Descending New York Center
11:36PM 40.1244 -74.5306 13° North 400 460 26,900  Level New York Center
11:37PM 40.2381 -74.5014 11° North 400 460 26,900  Level New York Center
11:38PM 40.3453 -74.4717 12° North 400 460 26,900  Level New York Center
11:39PM 40.4589 -74.4397 12° North 400 460 26,900 -240 Level New York Center
11:40PM 40.5681 -74.4100 12° North 400 460 26,500 -840 Descending New York Center
11:42PM 40.7919 -74.3508 11° North 400 460 24,500 -900 Descending Boston Center
11:43PM 40.9008 -74.3183 13° North 405 466 23,900 -300 Descending Boston Center
11:44PM 41.0097 -74.2831 14° North 405 466 23,900  Level Boston Center
11:45PM 41.1208 -74.2503 13° North 405 466 23,900  Level Boston Center
11:46PM 41.2339 -74.2150 13° North 405 466 23,900  Level Boston Center
11:47PM 41.3325 -74.1789 15° North 405 466 23,900  Level Boston Center
11:48PM 41.4433 -74.1486 12° North 405 466 23,900 -720 Level Boston Center
11:49PM 41.5564 -74.1158 12° North 412 474 22,500 -1,800 Descending Boston Center
11:50PM 41.6633 -74.0825 13° North 407 468 20,300 -2,340 Descending Boston Center
11:51PM 41.7636 -74.0489 14° North 379 436 17,900 -2,220 Descending Boston Center
11:52PM 41.8725 -74.0153 13° North 366 421 15,900 -1,980 Descending Boston Center
11:52PM 41.8997 -74.0075 12° North 360 414 15,400 -1,620 Descending Boston Center
11:53PM 41.9583 -73.9894 13° North 356 410 14,300 -1,800 Descending Boston Center
11:53PM 42.0044 -73.9739 14° North 361 415 13,400 -2,100 Descending Boston Center
11:54PM 42.0631 -73.9558 13° North 351 404 12,200 -2,100 Descending Boston Center
11:55PM 42.1092 -73.9400 14° North 338 389 11,100 -1,320 Descending Boston Center
11:55PM 42.1447 -73.9297 12° North 340 391 10,900 -300 Descending Boston Center
11:56PM 42.1928 -73.9169 11° North 285 328 10,800 -600 Descending Boston Center
11:56PM 42.2242 -73.9036 17° North 288 331 10,300 -1,620 Descending Boston Center
11:57PM 42.2619 -73.8903 15° North 237 273 9,200 -1,620 Descending Boston Center
11:57PM 42.2850 -73.8853 North 250 288 8,700 -1,500 Descending Boston Center
11:58PM 42.3225 -73.8750 11° North 222 255 7,700 -2,040 Descending Boston Center
11:58PM 42.3497 -73.8644 16° North 223 257 6,700 -2,100 Descending Boston Center
11:59PM 42.3811 -73.8539 14° North 213 245 5,600 -1,920 Descending Boston Center
11:59PM 42.4042 -73.8517 North 218 251 4,800 -1,140 Descending Boston Center
12:00AM 42.4372 -73.8747 333° Northwest 212 244 4,500 -300 Descending Boston Center
12:00AM 42.4619 -73.8867 340° North 212 244 4,500  Level Boston Center
12:01AM 42.4908 -73.9100 329° Northwest 205 236 4,500  Level Boston Center
12:01AM 42.5056 -73.9103 359° North 194 223 4,500  Level Boston Center
12:02AM 42.5408 -73.9139 356° North 174 200 4,500 -420 Level Boston Center
12:02AM 42.5681 -73.9117 North 181 208 4,000 -540 Descending Boston Center
12:03AM 42.5847 -73.9119 359° North 153 176 4,000 -840 Level Boston Center
12:03AM 42.6017 -73.8869 47° Northeast 150 173 3,200 -1,020 Descending Boston Center
12:04AM 42.6103 -73.8647 62° Northeast 176 203 3,000 -1,020 Descending Boston Center
12:04AM 42.6253 -73.8283 61° Northeast 143 165 2,200 -1,020 Descending Boston Center
12:05AM 42.6361 -73.8003 62° Northeast 187 215 2,000 -480 Descending Boston Center